Time;durP1;ratioP1;P1;durP2;ratioP2;P2;SDS_P1;SDS_P2;PMS_P1;PMS_P2;Temp;Humidity;BMP_temperature;BMP_pressure;BME280_temperature;BME280_humidity;BME280_pressure;Samples;Min_cycle;Max_cycle;Signal;HPM_P1;HPM_P2
2024/01/14 00:02:05;;;;;;;13.57;8.43;;;;;;;17.76;47.97;100634.06;4898229;29;20832;-74
2024/01/14 00:04:30;;;;;;;11.60;7.53;;;;;;;17.76;48.16;100639.78;4909790;28;20269;-75
2024/01/14 00:06:56;;;;;;;11.13;7.10;;;;;;;17.79;47.73;100628.44;4951708;28;20673;-76
2024/01/14 00:09:21;;;;;;;12.63;8.10;;;;;;;17.80;47.34;100623.56;4912892;28;20655;-76
2024/01/14 00:11:47;;;;;;;13.53;7.50;;;;;;;17.77;47.69;100628.00;4934973;28;20218;-76
2024/01/14 00:14:13;;;;;;;12.80;7.83;;;;;;;17.75;47.47;100620.97;4936101;29;20222;-76
2024/01/14 00:16:38;;;;;;;13.10;8.17;;;;;;;17.74;47.65;100625.84;4931436;29;20450;-76
2024/01/14 00:19:05;;;;;;;12.60;8.80;;;;;;;17.74;48.18;100625.00;4933019;28;20202;-76
2024/01/14 00:21:31;;;;;;;11.30;7.07;;;;;;;17.71;48.04;100623.72;4950366;29;20565;-76
2024/01/14 00:23:56;;;;;;;12.50;7.80;;;;;;;17.75;47.83;100616.09;4902573;29;20577;-76
2024/01/14 00:26:24;;;;;;;12.53;8.37;;;;;;;17.76;48.21;100612.03;4910163;29;20222;-76
2024/01/14 00:28:53;;;;;;;13.40;8.40;;;;;;;17.71;48.12;100609.44;4917013;28;20211;-76
2024/01/14 00:31:18;;;;;;;12.80;8.23;;;;;;;17.76;47.53;100600.59;4914361;29;20556;-76
2024/01/14 00:33:44;;;;;;;11.83;7.63;;;;;;;17.73;48.30;100603.38;4914978;29;20477;-76
2024/01/14 00:36:10;;;;;;;14.63;7.07;;;;;;;17.70;47.64;100604.94;4896166;29;20208;-77
2024/01/14 00:38:35;;;;;;;12.53;8.23;;;;;;;17.77;47.55;100596.56;4897876;28;20259;-76
2024/01/14 00:41:01;;;;;;;11.90;7.17;;;;;;;17.70;47.95;100584.13;4931041;29;20458;-76
2024/01/14 00:43:26;;;;;;;12.23;7.53;;;;;;;17.73;48.30;100587.09;4936890;29;20207;-77
2024/01/14 00:45:52;;;;;;;12.97;7.73;;;;;;;17.74;47.61;100574.44;4922233;29;20207;-76
2024/01/14 00:48:17;;;;;;;11.43;7.13;;;;;;;17.75;47.63;100584.66;4944047;28;20205;-76
2024/01/14 00:50:43;;;;;;;12.47;8.13;;;;;;;17.74;47.93;100563.03;4931215;28;20238;-76
2024/01/14 00:53:08;;;;;;;13.60;8.20;;;;;;;17.75;47.76;100573.25;4898701;29;20223;-76
2024/01/14 00:55:34;;;;;;;11.87;8.00;;;;;;;17.77;47.94;100564.31;4901349;29;20222;-76
2024/01/14 00:58:00;;;;;;;11.80;7.20;;;;;;;17.73;48.21;100561.38;4913809;29;20240;-76
2024/01/14 01:00:26;;;;;;;11.47;7.87;;;;;;;17.71;47.75;100558.03;4911542;29;20959;-76
2024/01/14 01:02:52;;;;;;;13.60;8.07;;;;;;;17.70;47.79;100547.81;4914938;29;20252;-76
2024/01/14 01:05:18;;;;;;;11.53;8.20;;;;;;;17.68;47.82;100546.53;4929120;29;20450;-76
2024/01/14 01:07:45;;;;;;;11.57;7.50;;;;;;;17.73;47.45;100552.81;4950299;28;20772;-77
2024/01/14 01:10:10;;;;;;;13.17;8.40;;;;;;;17.73;48.87;100549.97;4898791;29;20541;-76
2024/01/14 01:12:36;;;;;;;12.60;7.07;;;;;;;17.70;47.51;100536.41;4947590;28;20454;-76
2024/01/14 01:15:01;;;;;;;12.00;7.60;;;;;;;17.65;48.17;100530.97;4934937;29;20213;-76
2024/01/14 01:17:27;;;;;;;11.80;7.60;;;;;;;17.70;48.11;100532.75;4912500;29;20216;-76
2024/01/14 01:19:52;;;;;;;12.50;7.43;;;;;;;17.71;48.24;100520.94;4928149;29;20204;-76
2024/01/14 01:22:18;;;;;;;12.67;7.87;;;;;;;17.75;47.48;100519.00;4942474;28;20206;-77
2024/01/14 01:24:43;;;;;;;12.43;8.10;;;;;;;17.70;47.50;100522.13;4932017;28;20990;-77
2024/01/14 01:27:09;;;;;;;11.50;7.23;;;;;;;17.68;48.14;100518.84;4933209;28;20207;-76
2024/01/14 01:29:34;;;;;;;10.80;6.70;;;;;;;17.69;48.09;100514.78;4953735;28;20242;-77
2024/01/14 01:32:00;;;;;;;12.00;7.63;;;;;;;17.66;47.98;100512.66;4942160;28;20207;-76
2024/01/14 01:34:25;;;;;;;12.33;7.30;;;;;;;17.67;48.47;100499.22;4932486;29;20832;-76
2024/01/14 01:36:51;;;;;;;11.13;7.10;;;;;;;17.67;47.67;100505.75;4949459;28;20222;-76
2024/01/14 01:39:16;;;;;;;10.20;7.20;;;;;;;17.66;47.63;100504.06;4934398;29;20206;-76
2024/01/14 01:41:42;;;;;;;10.63;7.53;;;;;;;17.63;47.76;100496.28;4947945;28;20200;-77
2024/01/14 01:44:08;;;;;;;11.23;6.90;;;;;;;17.64;47.39;100489.34;4899061;29;20203;-76
2024/01/14 01:46:34;;;;;;;10.00;7.20;;;;;;;17.69;48.20;100488.22;4915592;29;20220;-76
2024/01/14 01:48:59;;;;;;;12.47;7.40;;;;;;;17.66;47.64;100484.09;4911309;29;20451;-76
2024/01/14 01:51:25;;;;;;;10.50;7.10;;;;;;;17.65;47.99;100481.63;4915847;29;20239;-76
2024/01/14 01:53:51;;;;;;;12.20;7.03;;;;;;;17.64;48.14;100495.06;4916093;29;20207;-76
2024/01/14 01:56:16;;;;;;;10.97;7.40;;;;;;;17.68;47.91;100481.72;4915551;29;20208;-76
2024/01/14 01:58:42;;;;;;;11.30;7.37;;;;;;;17.68;47.62;100484.56;4937953;28;20261;-77
2024/01/14 02:01:07;;;;;;;9.80;6.60;;;;;;;17.66;48.05;100472.69;4919529;29;20686;-76
2024/01/14 02:03:33;;;;;;;9.70;6.53;;;;;;;17.60;47.91;100461.94;4925639;29;20215;-76
2024/01/14 02:05:58;;;;;;;11.60;7.53;;;;;;;17.64;48.06;100460.81;4916157;29;20635;-76
2024/01/14 02:08:24;;;;;;;11.20;7.30;;;;;;;17.62;47.98;100466.06;4900641;29;20314;-76
2024/01/14 02:10:49;;;;;;;12.07;7.53;;;;;;;17.61;48.04;100464.41;4925130;28;20780;-76
2024/01/14 02:13:15;;;;;;;11.80;7.80;;;;;;;17.67;47.62;100465.78;4943262;28;20213;-75
2024/01/14 02:15:40;;;;;;;12.03;7.33;;;;;;;17.59;48.11;100457.41;4905898;29;20213;-76
2024/01/14 02:18:06;;;;;;;10.30;6.97;;;;;;;17.63;47.69;100453.44;4949836;29;20210;-76
2024/01/14 02:20:31;;;;;;;10.43;6.63;;;;;;;17.64;47.42;100457.13;4937584;29;20628;-77
2024/01/14 02:22:57;;;;;;;12.30;7.10;;;;;;;17.59;48.37;100460.25;4933514;29;20238;-76
2024/01/14 02:25:23;;;;;;;11.37;6.70;;;;;;;17.66;47.82;100458.41;4926452;29;20676;-75
2024/01/14 02:27:48;;;;;;;11.63;7.43;;;;;;;17.59;48.28;100458.25;4929256;29;20260;-76
2024/01/14 02:30:14;;;;;;;11.00;7.17;;;;;;;17.59;48.33;100451.69;4930180;29;20520;-76
2024/01/14 02:32:39;;;;;;;11.13;7.20;;;;;;;17.60;47.65;100447.66;4952417;28;20221;-76
2024/01/14 02:35:05;;;;;;;11.80;7.20;;;;;;;17.61;48.21;100450.13;4918891;29;20206;-75
2024/01/14 02:37:32;;;;;;;11.23;7.17;;;;;;;17.61;48.03;100458.69;4915457;29;20338;-74
2024/01/14 02:39:57;;;;;;;11.63;7.07;;;;;;;17.59;48.55;100451.69;4898676;29;20515;-76
2024/01/14 02:42:23;;;;;;;10.00;6.47;;;;;;;17.56;48.08;100452.44;4902147;29;20462;-76
2024/01/14 02:44:48;;;;;;;12.27;7.20;;;;;;;17.57;48.20;100454.94;4934374;29;20631;-76
2024/01/14 02:47:14;;;;;;;11.00;7.03;;;;;;;17.62;47.91;100460.38;4932545;29;20581;-76
2024/01/14 02:49:39;;;;;;;10.97;7.07;;;;;;;17.62;47.54;100445.25;4933771;29;20582;-76
2024/01/14 02:52:05;;;;;;;10.83;7.17;;;;;;;17.63;48.18;100458.31;4914758;29;20600;-76
2024/01/14 02:54:30;;;;;;;10.13;7.10;;;;;;;17.60;48.21;100450.50;4915597;29;20563;-76
2024/01/14 02:56:56;;;;;;;11.80;7.30;;;;;;;17.57;48.21;100452.09;4924798;28;20223;-76
2024/01/14 02:59:21;;;;;;;11.17;7.17;;;;;;;17.57;47.85;100452.09;4914558;29;20218;-78
2024/01/14 03:01:46;;;;;;;10.57;6.47;;;;;;;17.55;47.34;100450.81;4898850;29;20207;-76
2024/01/14 03:04:12;;;;;;;10.40;6.50;;;;;;;17.57;47.94;100454.09;4914820;29;20324;-76
2024/01/14 03:06:37;;;;;;;10.40;6.97;;;;;;;17.54;48.01;100449.97;4932407;29;20602;-76
2024/01/14 03:09:06;;;;;;;11.53;7.30;;;;;;;17.62;47.56;100442.41;4926393;28;20210;-76
2024/01/14 03:11:32;;;;;;;9.90;6.73;;;;;;;17.57;48.12;100437.81;4952443;28;20210;-75
2024/01/14 03:13:58;;;;;;;11.83;7.23;;;;;;;17.55;48.19;100443.03;4935087;28;20528;-74
2024/01/14 03:16:23;;;;;;;9.90;6.40;;;;;;;17.54;47.81;100438.53;4903404;29;20867;-76
2024/01/14 03:18:48;;;;;;;11.57;7.40;;;;;;;17.53;48.39;100434.03;4930363;29;20267;-76
2024/01/14 03:21:18;;;;;;;11.60;7.30;;;;;;;17.60;47.68;100433.38;4914107;29;20207;-76
2024/01/14 03:23:44;;;;;;;10.70;7.33;;;;;;;17.59;47.46;100432.53;4929186;29;20203;-75
2024/01/14 03:26:09;;;;;;;12.87;7.20;;;;;;;17.55;47.93;100431.63;4930641;29;20477;-76
2024/01/14 03:28:35;;;;;;;9.40;6.40;;;;;;;17.57;47.82;100432.09;4933317;28;20694;-76
2024/01/14 03:31:00;;;;;;;12.50;7.37;;;;;;;17.55;48.23;100419.41;4922398;29;20211;-77
2024/01/14 03:33:26;;;;;;;10.27;6.90;;;;;;;17.51;47.93;100430.72;4931141;29;20212;-76
2024/01/14 03:35:51;;;;;;;11.50;7.03;;;;;;;17.52;48.08;100428.69;4929936;29;20211;-76
2024/01/14 03:38:17;;;;;;;8.57;6.17;;;;;;;17.54;47.79;100421.41;4901188;29;20269;-76
2024/01/14 03:40:42;;;;;;;12.13;7.47;;;;;;;17.52;47.81;100418.13;4932665;28;20207;-76
2024/01/14 03:43:08;;;;;;;11.17;7.10;;;;;;;17.54;47.88;100421.41;4948687;28;20240;-76
2024/01/14 03:45:33;;;;;;;10.33;7.03;;;;;;;17.50;48.28;100411.94;4949186;28;20214;-76
2024/01/14 03:47:58;;;;;;;10.07;6.63;;;;;;;17.51;47.25;100409.91;4930405;28;20211;-76
2024/01/14 03:50:24;;;;;;;11.37;6.67;;;;;;;17.49;48.26;100406.59;4909312;29;20247;-76
2024/01/14 03:52:49;;;;;;;11.40;7.50;;;;;;;17.55;48.00;100416.53;4906865;29;20275;-76
2024/01/14 03:55:15;;;;;;;9.57;6.40;;;;;;;17.49;47.76;100416.00;4918690;29;20215;-74
2024/01/14 03:57:40;;;;;;;10.43;7.57;;;;;;;17.48;47.59;100419.22;4932660;29;20773;-76
2024/01/14 04:00:08;;;;;;;9.53;6.60;;;;;;;17.55;48.11;100422.25;4914111;29;20279;-76
2024/01/14 04:02:34;;;;;;;11.73;7.47;;;;;;;17.53;48.07;100431.19;4895516;29;20691;-76
2024/01/14 04:04:59;;;;;;;9.80;6.70;;;;;;;17.55;47.48;100427.97;4896090;29;20452;-76
2024/01/14 04:07:24;;;;;;;10.20;6.27;;;;;;;17.53;48.23;100418.94;4910778;29;20652;-77
2024/01/14 04:09:50;;;;;;;10.60;6.73;;;;;;;17.52;47.78;100423.81;4912652;29;20200;-76
2024/01/14 04:12:15;;;;;;;12.47;6.93;;;;;;;17.50;48.24;100426.19;4897056;29;20212;-77
2024/01/14 04:14:41;;;;;;;10.67;6.90;;;;;;;17.51;48.47;100427.03;4886347;29;20215;-76
2024/01/14 04:17:06;;;;;;;11.30;7.30;;;;;;;17.52;48.17;100434.41;4929215;29;20244;-76
2024/01/14 04:19:32;;;;;;;9.57;6.20;;;;;;;17.50;48.26;100436.81;4894333;29;20715;-77
2024/01/14 04:21:57;;;;;;;10.93;7.00;;;;;;;17.53;47.58;100438.91;4923998;29;20318;-75
2024/01/14 04:24:22;;;;;;;10.13;7.10;;;;;;;17.54;48.17;100438.53;4915859;29;20210;-75
2024/01/14 04:26:48;;;;;;;11.83;7.70;;;;;;;17.53;47.52;100434.03;4878873;29;20208;-73
2024/01/14 04:29:13;;;;;;;11.50;7.00;;;;;;;17.55;47.50;100445.09;4880526;29;20204;-72
2024/01/14 04:31:39;;;;;;;11.90;7.40;;;;;;;17.48;47.79;100439.19;4913051;29;20256;-72
2024/01/14 04:34:04;;;;;;;11.40;6.83;;;;;;;17.55;47.33;100451.59;4901049;29;20230;-73
2024/01/14 04:36:29;;;;;;;11.80;7.17;;;;;;;17.50;48.30;100451.88;4897522;29;20881;-72
2024/01/14 04:38:55;;;;;;;9.87;6.50;;;;;;;17.45;48.63;100452.16;4913181;29;20516;-72
2024/01/14 04:41:20;;;;;;;12.13;8.10;;;;;;;17.55;47.56;100445.91;4922452;29;20279;-72
2024/01/14 04:43:46;;;;;;;10.43;7.00;;;;;;;17.54;47.67;100437.69;4910173;29;20224;-72
2024/01/14 04:46:11;;;;;;;9.40;6.50;;;;;;;17.51;48.08;100432.75;4909976;29;20256;-72
2024/01/14 04:48:37;;;;;;;11.30;6.80;;;;;;;17.49;49.04;100438.81;4894324;29;20231;-72
2024/01/14 04:51:02;;;;;;;10.90;6.70;;;;;;;17.52;48.15;100426.69;4931870;29;20235;-72
2024/01/14 04:53:28;;;;;;;10.07;6.33;;;;;;;17.52;47.30;100438.09;4913518;29;20615;-73
2024/01/14 04:55:53;;;;;;;10.27;6.37;;;;;;;17.50;47.73;100429.06;4905386;29;20212;-72
2024/01/14 04:58:19;;;;;;;10.37;6.63;;;;;;;17.53;48.14;100428.31;4894166;29;20279;-72
2024/01/14 05:00:44;;;;;;;10.97;6.87;;;;;;;17.49;47.93;100424.56;4895903;29;20657;-72
2024/01/14 05:03:10;;;;;;;10.13;6.40;;;;;;;17.47;47.86;100420.41;4898411;29;20789;-72
2024/01/14 05:05:35;;;;;;;10.23;7.07;;;;;;;17.52;47.50;100417.28;4906170;29;20211;-72
2024/01/14 05:08:01;;;;;;;11.13;7.20;;;;;;;17.49;47.42;100413.13;4942698;29;20207;-73
2024/01/14 05:10:27;;;;;;;12.10;6.70;;;;;;;17.49;48.16;100418.84;4906109;29;20212;-73
2024/01/14 05:12:52;;;;;;;10.90;7.07;;;;;;;17.53;48.27;100413.22;4914968;29;20305;-72
2024/01/14 05:15:17;;;;;;;11.33;6.97;;;;;;;17.49;47.75;100416.00;4915875;29;20203;-72
2024/01/14 05:17:43;;;;;;;11.20;6.27;;;;;;;17.43;48.67;100408.06;4901441;29;20743;-73
2024/01/14 05:20:09;;;;;;;10.40;6.40;;;;;;;17.47;48.01;100412.69;4916004;29;20266;-72
2024/01/14 05:22:34;;;;;;;8.40;5.90;;;;;;;17.52;48.43;100403.84;4931203;29;20838;-72
2024/01/14 05:25:00;;;;;;;10.70;6.50;;;;;;;17.51;48.29;100404.22;4926840;29;20467;-72
2024/01/14 05:27:25;;;;;;;10.80;6.40;;;;;;;17.49;47.54;100401.72;4885766;29;20254;-72
2024/01/14 05:29:51;;;;;;;10.27;6.60;;;;;;;17.46;48.36;100407.34;4900505;29;20223;-72
2024/01/14 05:32:16;;;;;;;10.00;6.97;;;;;;;17.50;47.39;100411.94;4907630;29;20212;-72
2024/01/14 05:34:42;;;;;;;10.13;6.50;;;;;;;17.54;48.17;100403.44;4882234;29;20243;-73
2024/01/14 05:37:08;;;;;;;9.10;6.13;;;;;;;17.48;47.59;100405.78;4891944;29;20295;-72
2024/01/14 05:39:33;;;;;;;9.80;6.50;;;;;;;17.52;47.90;100401.00;4899405;29;20220;-72
2024/01/14 05:41:59;;;;;;;10.73;6.57;;;;;;;17.52;48.07;100401.00;4912948;29;20204;-72
2024/01/14 05:44:25;;;;;;;11.37;7.13;;;;;;;17.53;47.89;100402.63;4912132;29;20221;-74
2024/01/14 05:46:51;;;;;;;9.43;6.10;;;;;;;17.53;47.55;100396.09;4915080;29;20329;-72
2024/01/14 05:49:16;;;;;;;10.57;6.93;;;;;;;17.53;47.89;100396.09;4915155;29;20448;-72
2024/01/14 05:51:41;;;;;;;12.70;7.67;;;;;;;17.57;47.73;100385.59;4917509;29;20860;-72
2024/01/14 05:54:07;;;;;;;11.63;6.90;;;;;;;17.51;47.79;100392.78;4893606;28;20206;-72
2024/01/14 05:56:32;;;;;;;11.10;6.33;;;;;;;17.50;47.80;100389.09;4938407;28;20226;-72
2024/01/14 05:59:00;;;;;;;9.37;6.70;;;;;;;17.54;48.00;100392.88;4954131;28;20209;-72
2024/01/14 06:01:26;;;;;;;9.27;6.40;;;;;;;17.56;47.16;100383.94;4914712;29;20737;-72
2024/01/14 06:03:52;;;;;;;10.40;6.33;;;;;;;17.49;48.06;100384.59;4916246;29;20546;-72
2024/01/14 06:06:17;;;;;;;9.80;6.50;;;;;;;17.51;47.61;100382.19;4922840;28;20523;-72
2024/01/14 06:08:43;;;;;;;10.37;6.33;;;;;;;17.47;48.07;100378.44;4953142;28;20214;-72
2024/01/14 06:11:08;;;;;;;11.27;6.43;;;;;;;17.47;47.85;100369.88;4940429;28;20220;-72
2024/01/14 06:13:33;;;;;;;8.93;6.37;;;;;;;17.50;47.93;100369.13;4915102;29;20212;-72
2024/01/14 06:15:59;;;;;;;9.30;5.77;;;;;;;17.45;47.80;100365.75;4909686;29;20586;-72
2024/01/14 06:18:25;;;;;;;9.97;7.07;;;;;;;17.54;47.78;100364.31;4909597;28;20214;-73
2024/01/14 06:20:50;;;;;;;9.50;6.37;;;;;;;17.55;47.80;100370.88;4936052;28;20478;-72
2024/01/14 06:23:16;;;;;;;9.87;6.53;;;;;;;17.50;48.00;100369.13;4948121;28;20207;-72
2024/01/14 06:25:41;;;;;;;10.30;6.60;;;;;;;17.49;47.75;100366.63;4947269;28;20210;-72
2024/01/14 06:28:07;;;;;;;10.33;6.97;;;;;;;17.51;48.17;100367.91;4923312;29;20204;-72
2024/01/14 06:30:33;;;;;;;11.30;7.20;;;;;;;17.49;47.88;100367.47;4931735;29;20239;-72
2024/01/14 06:32:59;;;;;;;9.43;6.20;;;;;;;17.56;48.06;100367.63;4945130;29;20212;-72
2024/01/14 06:35:24;;;;;;;9.80;6.80;;;;;;;17.53;47.79;100365.53;4917528;29;20474;-72
2024/01/14 06:37:50;;;;;;;10.17;6.20;;;;;;;17.53;48.20;100361.84;4916893;29;20785;-73
2024/01/14 06:40:16;;;;;;;10.60;6.50;;;;;;;17.51;47.76;100365.06;4919110;29;20207;-72
2024/01/14 06:42:41;;;;;;;11.23;6.90;;;;;;;17.52;47.45;100363.88;4947891;28;20847;-72
2024/01/14 06:45:08;;;;;;;10.00;6.70;;;;;;;17.53;47.56;100359.81;4932148;29;20673;-76
2024/01/14 06:47:34;;;;;;;9.73;6.67;;;;;;;17.53;47.29;100362.69;4914989;29;20623;-76
2024/01/14 06:49:59;;;;;;;10.50;6.53;;;;;;;17.54;47.51;100364.31;4897487;29;20480;-76
2024/01/14 06:52:25;;;;;;;9.43;5.87;;;;;;;17.54;48.08;100357.78;4917881;29;20642;-76
2024/01/14 06:54:50;;;;;;;9.10;6.27;;;;;;;17.51;47.97;100352.84;4929627;29;20223;-76
2024/01/14 06:57:16;;;;;;;9.97;6.37;;;;;;;17.56;47.54;100344.78;4914764;29;20203;-77
2024/01/14 06:59:44;;;;;;;9.67;5.87;;;;;;;17.62;47.36;100334.75;4898675;29;20212;-76
2024/01/14 07:02:12;;;;;;;9.87;6.00;;;;;;;17.53;47.71;100330.44;4916054;29;20213;-78
2024/01/14 07:04:37;;;;;;;9.87;6.50;;;;;;;17.55;47.63;100328.88;4949114;28;20450;-76
2024/01/14 07:07:03;;;;;;;11.43;7.00;;;;;;;17.46;47.69;100325.38;4948276;28;21087;-76
2024/01/14 07:09:28;;;;;;;11.43;7.23;;;;;;;17.49;47.94;100316.09;4947911;28;20198;-76
2024/01/14 07:11:53;;;;;;;9.33;6.47;;;;;;;17.47;48.05;100317.66;4903404;29;20222;-76
2024/01/14 07:14:19;;;;;;;11.47;7.17;;;;;;;17.51;47.91;100313.69;4932228;29;20211;-75
2024/01/14 07:16:44;;;;;;;9.90;6.47;;;;;;;17.49;47.91;100313.25;4913875;28;20247;-76
2024/01/14 07:19:10;;;;;;;9.67;6.10;;;;;;;17.57;47.42;100311.38;4946294;29;20210;-76
2024/01/14 07:21:35;;;;;;;9.30;6.43;;;;;;;17.50;47.80;100317.75;4947292;28;20218;-76
2024/01/14 07:24:01;;;;;;;11.73;6.57;;;;;;;17.48;47.85;100308.75;4900794;28;20211;-76
2024/01/14 07:26:26;;;;;;;10.77;6.90;;;;;;;17.54;47.69;100307.22;4948113;29;20218;-76
2024/01/14 07:28:52;;;;;;;8.60;5.90;;;;;;;17.52;47.87;100303.09;4931254;29;20207;-76
2024/01/14 07:31:21;;;;;;;10.27;6.10;;;;;;;17.54;48.03;100298.66;4944781;28;20211;-76
2024/01/14 07:33:52;;;;;;;9.60;6.00;;;;;;;17.54;47.93;100295.81;4899007;29;20450;-76
2024/01/14 07:36:18;;;;;;;12.00;7.23;;;;;;;17.52;48.20;100281.09;4900976;29;20463;-76
2024/01/14 07:38:44;;;;;;;9.30;6.00;;;;;;;17.56;47.58;100284.03;4930635;29;20938;-76
2024/01/14 07:41:15;;;;;;;9.27;5.90;;;;;;;17.52;47.89;100281.09;4950394;28;20199;-76
2024/01/14 07:43:41;;;;;;;11.87;6.23;;;;;;;17.50;48.02;100274.94;4960413;28;20459;-75
2024/01/14 07:46:06;;;;;;;8.73;5.53;;;;;;;17.54;48.39;100272.97;4932393;29;20862;-76
2024/01/14 07:48:33;;;;;;;8.73;6.03;;;;;;;17.48;48.31;100260.22;4913246;28;20215;-76
2024/01/14 07:50:59;;;;;;;12.30;5.90;;;;;;;17.55;47.74;100263.22;4933682;29;20231;-77
2024/01/14 07:53:24;;;;;;;10.23;7.03;;;;;;;17.55;47.83;100257.50;4922760;29;20473;-76
2024/01/14 07:55:50;;;;;;;10.60;6.20;;;;;;;17.48;48.29;100259.38;4871912;29;20231;-72
2024/01/14 07:58:15;;;;;;;10.30;6.90;;;;;;;17.55;47.93;100257.50;4881788;29;20212;-72
2024/01/14 08:00:42;;;;;;;10.10;6.10;;;;;;;17.52;47.90;100258.28;4913098;29;20569;-72
2024/01/14 08:03:07;;;;;;;10.20;6.80;;;;;;;17.50;47.80;100248.44;4914932;29;20299;-72
2024/01/14 08:05:35;;;;;;;10.57;6.57;;;;;;;17.54;47.62;100255.84;4897139;29;20971;-71
2024/01/14 08:08:01;;;;;;;9.87;6.40;;;;;;;17.56;47.31;100244.88;4897003;29;20212;-73
2024/01/14 08:10:27;;;;;;;9.77;6.10;;;;;;;17.53;48.39;100239.94;4931951;29;20518;-70
2024/01/14 08:12:52;;;;;;;9.90;6.27;;;;;;;17.52;48.06;100237.44;4926037;29;20462;-70
2024/01/14 08:15:18;;;;;;;9.83;6.30;;;;;;;17.50;47.67;100243.53;4910897;29;20724;-70
2024/01/14 08:17:43;;;;;;;9.83;7.00;;;;;;;17.54;48.00;100240.75;4885091;29;20696;-71
2024/01/14 08:20:10;;;;;;;10.60;6.87;;;;;;;17.52;47.71;100246.84;4879782;29;20763;-70
2024/01/14 08:22:42;;;;;;;9.20;5.83;;;;;;;17.55;47.73;100234.66;4914781;29;20263;-69
2024/01/14 08:25:07;;;;;;;11.00;6.83;;;;;;;17.53;47.86;100234.22;4934476;29;20469;-70
2024/01/14 08:27:33;;;;;;;10.10;6.50;;;;;;;17.55;47.53;100234.66;4906418;29;20444;-69
2024/01/14 08:29:59;;;;;;;9.00;6.23;;;;;;;17.63;47.86;100227.06;4913658;29;20207;-69
2024/01/14 08:32:24;;;;;;;7.70;5.57;;;;;;;17.57;47.53;100231.44;4916957;29;20951;-72
2024/01/14 08:34:50;;;;;;;10.30;6.30;;;;;;;17.57;48.15;100232.28;4909876;29;20203;-71
2024/01/14 08:37:15;;;;;;;9.67;5.83;;;;;;;17.59;47.52;100224.16;4898394;29;20216;-69
2024/01/14 08:39:41;;;;;;;10.50;6.60;;;;;;;17.52;48.13;100229.72;4868802;29;20216;-70
2024/01/14 08:42:06;;;;;;;8.60;6.50;;;;;;;17.58;47.94;100233.09;4884555;29;20749;-70
2024/01/14 08:44:32;;;;;;;8.93;5.70;;;;;;;17.56;47.53;100230.59;4917724;29;20831;-69
2024/01/14 08:46:58;;;;;;;10.10;6.30;;;;;;;17.54;47.61;100220.75;4916808;29;20591;-71
2024/01/14 08:49:24;;;;;;;9.40;6.77;;;;;;;17.55;47.59;100231.00;4922715;28;20255;-68
2024/01/14 08:51:50;;;;;;;9.97;6.40;;;;;;;17.63;47.39;100227.91;4938290;28;20484;-68
2024/01/14 08:54:15;;;;;;;11.17;5.90;;;;;;;17.60;47.69;100228.66;4956061;28;20453;-70
2024/01/14 08:56:41;;;;;;;9.17;6.43;;;;;;;17.53;47.75;100225.66;4950764;28;20285;-70
2024/01/14 08:59:06;;;;;;;12.50;6.03;;;;;;;17.54;48.13;100217.91;4955129;28;20565;-69
2024/01/14 09:01:32;;;;;;;9.77;6.40;;;;;;;17.57;47.73;100220.03;4935517;28;21052;-70
2024/01/14 09:03:57;;;;;;;9.60;6.07;;;;;;;17.56;47.49;100218.38;4955147;28;20206;-69
2024/01/14 09:06:23;;;;;;;10.30;6.43;;;;;;;17.61;48.03;100221.75;4968531;28;20202;-69
2024/01/14 09:08:48;;;;;;;11.33;6.53;;;;;;;17.62;47.64;100214.00;4924382;28;20206;-72
2024/01/14 09:11:14;;;;;;;8.50;5.90;;;;;;;17.55;48.17;100214.69;4954484;28;20210;-70
2024/01/14 09:13:39;;;;;;;9.77;6.70;;;;;;;17.55;48.03;100222.44;4926939;29;20232;-68
2024/01/14 09:16:06;;;;;;;10.80;6.80;;;;;;;17.51;48.36;100213.78;4968500;28;20222;-76
2024/01/14 09:18:31;;;;;;;9.70;6.27;;;;;;;17.53;47.88;100208.53;4951491;28;20217;-76
2024/01/14 09:20:56;;;;;;;9.93;5.63;;;;;;;17.57;47.95;100206.59;4926476;28;20462;-76
2024/01/14 09:23:22;;;;;;;10.80;7.03;;;;;;;17.59;47.73;100212.75;4953901;28;20284;-76
2024/01/14 09:25:47;;;;;;;10.27;6.20;;;;;;;17.60;47.58;100214.38;4935041;28;20210;-76
2024/01/14 09:28:13;;;;;;;9.60;6.20;;;;;;;17.56;47.77;100207.78;4954181;28;20249;-77
2024/01/14 09:30:38;;;;;;;8.60;6.30;;;;;;;17.53;48.07;100211.41;4953739;28;20217;-77
2024/01/14 09:33:04;;;;;;;10.63;6.80;;;;;;;17.58;47.64;100205.38;4905417;29;20230;-77
2024/01/14 09:35:29;;;;;;;10.33;6.40;;;;;;;17.61;47.96;100201.75;4926140;28;20206;-78
2024/01/14 09:37:55;;;;;;;33.60;7.97;;;;;;;17.64;47.37;100198.16;4956926;28;20291;-76
2024/01/14 09:40:20;;;;;;;13.10;7.27;;;;;;;17.50;47.81;100195.00;4944075;28;20241;-76
2024/01/14 09:42:47;;;;;;;10.27;6.73;;;;;;;17.51;46.86;100185.25;4919490;29;20211;-76
2024/01/14 09:45:13;;;;;;;11.37;7.43;;;;;;;17.50;47.07;100195.00;4928928;29;20675;-76
2024/01/14 09:47:38;;;;;;;11.80;6.97;;;;;;;17.51;47.51;100187.28;4937093;28;20859;-76
2024/01/14 09:50:04;;;;;;;11.30;7.37;;;;;;;17.54;47.04;100193.06;4952586;28;20513;-77
2024/01/14 09:52:31;;;;;;;11.10;6.70;;;;;;;17.58;46.84;100188.25;4965228;28;20569;-77
2024/01/14 09:54:57;;;;;;;9.73;6.33;;;;;;;17.57;47.31;100185.78;4932484;29;20455;-76
2024/01/14 09:57:22;;;;;;;10.50;7.27;;;;;;;17.54;47.17;100187.34;4947606;28;20481;-76
2024/01/14 09:59:49;;;;;;;12.23;7.50;;;;;;;17.56;47.01;100184.94;4964575;28;20226;-75
2024/01/14 10:02:15;;;;;;;13.17;7.57;;;;;;;17.54;47.73;100178.78;4934012;28;20203;-75
2024/01/14 10:04:40;;;;;;;13.27;8.07;;;;;;;17.57;47.21;100172.34;4928034;28;20484;-75
2024/01/14 10:07:09;;;;;;;10.63;6.53;;;;;;;17.52;46.71;100175.50;4940205;28;20206;-77
2024/01/14 10:09:36;;;;;;;11.13;6.70;;;;;;;17.51;47.83;100168.13;4946468;28;20245;-76
2024/01/14 10:12:01;;;;;;;9.87;6.43;;;;;;;17.53;47.98;100168.59;4939928;28;20470;-76
2024/01/14 10:14:27;;;;;;;12.80;6.60;;;;;;;17.50;47.99;100175.03;4938231;28;20489;-76
2024/01/14 10:16:57;;;;;;;10.80;6.80;;;;;;;17.50;47.39;100169.31;4952902;28;20218;-76
2024/01/14 10:19:23;;;;;;;11.50;7.00;;;;;;;17.51;47.40;100165.25;4927078;28;20218;-76
2024/01/14 10:21:48;;;;;;;10.53;6.70;;;;;;;17.52;47.28;100166.94;4918715;28;20446;-76
2024/01/14 10:24:14;;;;;;;11.93;6.67;;;;;;;17.55;47.24;100149.03;4928008;28;20764;-76
2024/01/14 10:26:40;;;;;;;10.70;6.90;;;;;;;17.50;47.34;100160.75;4921322;29;20206;-69
2024/01/14 10:29:06;;;;;;;11.97;7.37;;;;;;;17.54;47.06;100155.97;4953720;28;20213;-71
2024/01/14 10:31:31;;;;;;;11.27;6.40;;;;;;;17.51;47.71;100153.84;4933696;28;20469;-72
2024/01/14 10:34:02;;;;;;;11.17;6.03;;;;;;;17.50;47.38;100157.09;4954818;28;20210;-69
2024/01/14 10:36:30;;;;;;;11.13;7.00;;;;;;;17.52;47.89;100148.97;4951225;28;20214;-69
2024/01/14 10:38:57;;;;;;;12.30;6.77;;;;;;;17.51;47.13;100142.44;4953849;28;20481;-69
2024/01/14 10:41:23;;;;;;;12.57;7.00;;;;;;;17.51;47.23;100138.78;4950294;28;20465;-71
2024/01/14 10:43:48;;;;;;;12.83;7.60;;;;;;;17.51;46.96;100139.56;4952956;28;20456;-69
2024/01/14 10:46:14;;;;;;;10.40;7.43;;;;;;;17.50;47.50;100128.56;4953419;28;20938;-69
2024/01/14 10:48:39;;;;;;;13.33;7.90;;;;;;;17.60;47.78;100123.03;4952813;28;20202;-69
2024/01/14 10:51:05;;;;;;;12.33;6.97;;;;;;;17.53;47.16;100117.22;4924630;29;20231;-70
2024/01/14 10:53:41;;;;;;;11.63;6.40;;;;;;;17.54;46.98;100113.13;4961529;28;20211;-69
2024/01/14 10:56:06;;;;;;;10.50;6.60;;;;;;;17.47;48.25;100106.47;4910537;29;20257;-69
2024/01/14 10:58:36;;;;;;;9.90;5.77;;;;;;;17.49;47.60;100102.03;4941808;28;20462;-72
2024/01/14 11:01:03;;;;;;;10.60;6.73;;;;;;;17.55;46.72;100097.66;4933497;29;20663;-69
2024/01/14 11:03:29;;;;;;;10.07;6.33;;;;;;;17.49;47.78;100099.19;4933905;29;20960;-70
2024/01/14 11:05:54;;;;;;;12.30;7.57;;;;;;;17.45;47.97;100089.72;4948005;28;20447;-68
2024/01/14 11:08:21;;;;;;;9.33;6.40;;;;;;;17.49;47.35;100090.63;4900367;29;20216;-70
2024/01/14 11:10:47;;;;;;;10.00;7.00;;;;;;;17.47;47.41;100075.91;4934777;29;20599;-69
2024/01/14 11:13:25;;;;;;;11.03;6.60;;;;;;;17.42;47.81;100070.53;4898881;29;20558;-68